sensor_id;sensor_type;location;lat;lon;timestamp;P1;durP1;ratioP1;P2;durP2;ratioP2
16667;SDS011;8447;52.630;4.734;2022-08-04T00:02:34;5.07;;;1.50;;
16667;SDS011;8447;52.630;4.734;2022-08-04T00:05:04;4.43;;;1.93;;
16667;SDS011;8447;52.630;4.734;2022-08-04T00:07:34;5.10;;;1.30;;
16667;SDS011;8447;52.630;4.734;2022-08-04T00:10:02;3.17;;;1.10;;
16667;SDS011;8447;52.630;4.734;2022-08-04T00:12:30;2.80;;;1.97;;
16667;SDS011;8447;52.630;4.734;2022-08-04T00:14:58;2.00;;;1.33;;
16667;SDS011;8447;52.630;4.734;2022-08-04T00:17:27;2.80;;;1.20;;
16667;SDS011;8447;52.630;4.734;2022-08-04T00:19:54;5.00;;;1.40;;
16667;SDS011;8447;52.630;4.734;2022-08-04T00:22:25;5.03;;;1.80;;
16667;SDS011;8447;52.630;4.734;2022-08-04T00:24:52;4.00;;;1.70;;
16667;SDS011;8447;52.630;4.734;2022-08-04T00:27:18;4.27;;;1.30;;
16667;SDS011;8447;52.630;4.734;2022-08-04T00:29:45;5.20;;;1.40;;
16667;SDS011;8447;52.630;4.734;2022-08-04T00:32:12;3.57;;;1.20;;
16667;SDS011;8447;52.630;4.734;2022-08-04T00:34:38;2.87;;;1.50;;
16667;SDS011;8447;52.630;4.734;2022-08-04T00:37:05;4.60;;;1.80;;
16667;SDS011;8447;52.630;4.734;2022-08-04T00:39:33;3.53;;;1.50;;
16667;SDS011;8447;52.630;4.734;2022-08-04T00:42:10;1.90;;;1.37;;
16667;SDS011;8447;52.630;4.734;2022-08-04T00:44:41;5.00;;;1.60;;
16667;SDS011;8447;52.630;4.734;2022-08-04T00:47:17;4.53;;;1.57;;
16667;SDS011;8447;52.630;4.734;2022-08-04T00:49:52;3.00;;;1.60;;
16667;SDS011;8447;52.630;4.734;2022-08-04T00:52:27;3.97;;;1.60;;
16667;SDS011;8447;52.630;4.734;2022-08-04T00:55:03;3.23;;;1.83;;
16667;SDS011;8447;52.630;4.734;2022-08-04T00:57:31;4.23;;;1.77;;
16667;SDS011;8447;52.630;4.734;2022-08-04T01:00:05;2.40;;;1.40;;
16667;SDS011;8447;52.630;4.734;2022-08-04T01:02:35;1.47;;;1.23;;
16667;SDS011;8447;52.630;4.734;2022-08-04T01:05:02;2.90;;;1.30;;
16667;SDS011;8447;52.630;4.734;2022-08-04T01:07:36;4.57;;;1.50;;
16667;SDS011;8447;52.630;4.734;2022-08-04T01:10:09;3.17;;;1.50;;
16667;SDS011;8447;52.630;4.734;2022-08-04T01:12:47;3.87;;;1.43;;
16667;SDS011;8447;52.630;4.734;2022-08-04T01:15:17;3.20;;;1.47;;
16667;SDS011;8447;52.630;4.734;2022-08-04T01:17:47;3.40;;;1.40;;
16667;SDS011;8447;52.630;4.734;2022-08-04T01:20:19;3.13;;;1.33;;
16667;SDS011;8447;52.630;4.734;2022-08-04T01:22:49;3.03;;;1.23;;
16667;SDS011;8447;52.630;4.734;2022-08-04T01:25:33;4.73;;;1.50;;
16667;SDS011;8447;52.630;4.734;2022-08-04T01:28:10;3.23;;;1.40;;
16667;SDS011;8447;52.630;4.734;2022-08-04T01:30:42;3.67;;;1.47;;
16667;SDS011;8447;52.630;4.734;2022-08-04T01:33:12;4.30;;;1.73;;
16667;SDS011;8447;52.630;4.734;2022-08-04T01:35:39;2.93;;;1.10;;
16667;SDS011;8447;52.630;4.734;2022-08-04T01:38:09;3.27;;;1.33;;
16667;SDS011;8447;52.630;4.734;2022-08-04T01:40:38;5.43;;;2.07;;
16667;SDS011;8447;52.630;4.734;2022-08-04T01:43:06;4.60;;;1.23;;
16667;SDS011;8447;52.630;4.734;2022-08-04T01:45:33;1.40;;;1.30;;
16667;SDS011;8447;52.630;4.734;2022-08-04T01:48:03;3.50;;;1.40;;
16667;SDS011;8447;52.630;4.734;2022-08-04T01:50:32;5.53;;;1.50;;
16667;SDS011;8447;52.630;4.734;2022-08-04T01:52:59;2.33;;;1.40;;
16667;SDS011;8447;52.630;4.734;2022-08-04T01:55:27;3.60;;;1.37;;
16667;SDS011;8447;52.630;4.734;2022-08-04T01:57:54;3.30;;;1.43;;
16667;SDS011;8447;52.630;4.734;2022-08-04T02:00:22;5.17;;;1.83;;
16667;SDS011;8447;52.630;4.734;2022-08-04T02:02:50;2.43;;;1.60;;
16667;SDS011;8447;52.630;4.734;2022-08-04T02:05:19;2.53;;;1.20;;
16667;SDS011;8447;52.630;4.734;2022-08-04T02:07:50;2.10;;;1.40;;
16667;SDS011;8447;52.630;4.734;2022-08-04T02:10:25;2.53;;;1.40;;
16667;SDS011;8447;52.630;4.734;2022-08-04T02:12:55;2.43;;;1.27;;
16667;SDS011;8447;52.630;4.734;2022-08-04T02:15:26;2.63;;;1.27;;
16667;SDS011;8447;52.630;4.734;2022-08-04T02:17:55;5.03;;;1.40;;
16667;SDS011;8447;52.630;4.734;2022-08-04T02:20:24;2.47;;;1.17;;
16667;SDS011;8447;52.630;4.734;2022-08-04T02:22:52;3.47;;;1.20;;
16667;SDS011;8447;52.630;4.734;2022-08-04T02:25:19;2.93;;;1.70;;
16667;SDS011;8447;52.630;4.734;2022-08-04T02:27:55;1.57;;;1.30;;
16667;SDS011;8447;52.630;4.734;2022-08-04T02:30:27;6.60;;;1.60;;
16667;SDS011;8447;52.630;4.734;2022-08-04T02:32:54;6.73;;;2.23;;
16667;SDS011;8447;52.630;4.734;2022-08-04T02:35:24;2.53;;;1.70;;
16667;SDS011;8447;52.630;4.734;2022-08-04T02:37:53;2.90;;;1.37;;
16667;SDS011;8447;52.630;4.734;2022-08-04T02:40:22;3.57;;;1.40;;
16667;SDS011;8447;52.630;4.734;2022-08-04T02:42:49;5.57;;;1.47;;
16667;SDS011;8447;52.630;4.734;2022-08-04T02:45:18;4.97;;;1.63;;
16667;SDS011;8447;52.630;4.734;2022-08-04T02:47:47;1.70;;;1.10;;
16667;SDS011;8447;52.630;4.734;2022-08-04T02:50:15;6.73;;;1.70;;
16667;SDS011;8447;52.630;4.734;2022-08-04T02:52:44;4.40;;;1.70;;
16667;SDS011;8447;52.630;4.734;2022-08-04T02:55:12;4.90;;;2.20;;
16667;SDS011;8447;52.630;4.734;2022-08-04T02:57:39;6.67;;;1.80;;
16667;SDS011;8447;52.630;4.734;2022-08-04T03:00:06;5.73;;;3.30;;
16667;SDS011;8447;52.630;4.734;2022-08-04T03:02:34;6.43;;;1.97;;
16667;SDS011;8447;52.630;4.734;2022-08-04T03:05:09;4.50;;;1.40;;
16667;SDS011;8447;52.630;4.734;2022-08-04T03:15:58;2.90;;;1.37;;
16667;SDS011;8447;52.630;4.734;2022-08-04T03:18:35;2.73;;;1.40;;
16667;SDS011;8447;52.630;4.734;2022-08-04T03:34:56;3.73;;;1.80;;
16667;SDS011;8447;52.630;4.734;2022-08-04T03:40:15;2.97;;;1.60;;
16667;SDS011;8447;52.630;4.734;2022-08-04T03:51:13;3.57;;;1.53;;
16667;SDS011;8447;52.630;4.734;2022-08-04T03:54:07;3.20;;;1.40;;
16667;SDS011;8447;52.630;4.734;2022-08-04T03:56:42;3.00;;;1.40;;
16667;SDS011;8447;52.630;4.734;2022-08-04T03:59:23;3.33;;;1.33;;
16667;SDS011;8447;52.630;4.734;2022-08-04T04:02:06;5.73;;;1.53;;
16667;SDS011;8447;52.630;4.734;2022-08-04T04:04:41;3.53;;;1.50;;
16667;SDS011;8447;52.630;4.734;2022-08-04T04:07:35;4.13;;;1.37;;
16667;SDS011;8447;52.630;4.734;2022-08-04T04:12:51;3.43;;;1.47;;
16667;SDS011;8447;52.630;4.734;2022-08-04T04:15:27;3.00;;;1.23;;
16667;SDS011;8447;52.630;4.734;2022-08-04T04:18:13;5.03;;;1.40;;
16667;SDS011;8447;52.630;4.734;2022-08-04T04:20:55;3.93;;;1.40;;
16667;SDS011;8447;52.630;4.734;2022-08-04T04:23:29;2.50;;;1.63;;
16667;SDS011;8447;52.630;4.734;2022-08-04T04:26:03;2.60;;;1.37;;
16667;SDS011;8447;52.630;4.734;2022-08-04T04:28:35;3.70;;;1.57;;
16667;SDS011;8447;52.630;4.734;2022-08-04T04:31:07;6.60;;;1.40;;
16667;SDS011;8447;52.630;4.734;2022-08-04T04:33:37;3.90;;;1.70;;
16667;SDS011;8447;52.630;4.734;2022-08-04T04:36:09;2.37;;;1.40;;
16667;SDS011;8447;52.630;4.734;2022-08-04T04:38:46;4.30;;;1.57;;
16667;SDS011;8447;52.630;4.734;2022-08-04T04:41:27;5.20;;;1.73;;
16667;SDS011;8447;52.630;4.734;2022-08-04T04:44:09;4.00;;;1.57;;
16667;SDS011;8447;52.630;4.734;2022-08-04T04:46:40;2.90;;;1.57;;
16667;SDS011;8447;52.630;4.734;2022-08-04T04:49:10;2.30;;;1.57;;
16667;SDS011;8447;52.630;4.734;2022-08-04T04:51:41;5.80;;;1.70;;
16667;SDS011;8447;52.630;4.734;2022-08-04T04:54:12;1.87;;;1.37;;
16667;SDS011;8447;52.630;4.734;2022-08-04T04:56:44;3.80;;;1.60;;
16667;SDS011;8447;52.630;4.734;2022-08-04T04:59:13;4.93;;;1.70;;
16667;SDS011;8447;52.630;4.734;2022-08-04T05:01:47;2.63;;;1.40;;
16667;SDS011;8447;52.630;4.734;2022-08-04T05:04:25;3.57;;;1.20;;
16667;SDS011;8447;52.630;4.734;2022-08-04T05:07:05;6.00;;;1.70;;
16667;SDS011;8447;52.630;4.734;2022-08-04T05:09:40;6.30;;;1.50;;
16667;SDS011;8447;52.630;4.734;2022-08-04T05:15:11;5.40;;;2.00;;
16667;SDS011;8447;52.630;4.734;2022-08-04T05:17:38;3.67;;;1.60;;
16667;SDS011;8447;52.630;4.734;2022-08-04T05:20:06;4.87;;;1.77;;
16667;SDS011;8447;52.630;4.734;2022-08-04T05:22:34;3.77;;;1.60;;
16667;SDS011;8447;52.630;4.734;2022-08-04T05:25:04;4.97;;;1.60;;
16667;SDS011;8447;52.630;4.734;2022-08-04T05:27:34;5.77;;;1.60;;
16667;SDS011;8447;52.630;4.734;2022-08-04T05:30:03;3.83;;;1.60;;
16667;SDS011;8447;52.630;4.734;2022-08-04T05:32:32;3.10;;;1.40;;
16667;SDS011;8447;52.630;4.734;2022-08-04T05:35:02;4.37;;;1.60;;
16667;SDS011;8447;52.630;4.734;2022-08-04T05:37:29;5.53;;;1.40;;
16667;SDS011;8447;52.630;4.734;2022-08-04T05:39:58;4.80;;;1.40;;
16667;SDS011;8447;52.630;4.734;2022-08-04T05:42:28;3.93;;;1.93;;
16667;SDS011;8447;52.630;4.734;2022-08-04T05:44:55;5.53;;;1.43;;
16667;SDS011;8447;52.630;4.734;2022-08-04T05:47:22;3.23;;;1.53;;
16667;SDS011;8447;52.630;4.734;2022-08-04T05:49:50;5.97;;;1.70;;
16667;SDS011;8447;52.630;4.734;2022-08-04T05:52:17;5.73;;;1.30;;
16667;SDS011;8447;52.630;4.734;2022-08-04T05:54:43;3.80;;;1.57;;
16667;SDS011;8447;52.630;4.734;2022-08-04T05:57:10;7.63;;;1.90;;
16667;SDS011;8447;52.630;4.734;2022-08-04T05:59:39;4.07;;;1.40;;
16667;SDS011;8447;52.630;4.734;2022-08-04T06:02:10;4.97;;;1.40;;
16667;SDS011;8447;52.630;4.734;2022-08-04T06:04:39;2.60;;;1.50;;
16667;SDS011;8447;52.630;4.734;2022-08-04T06:07:06;4.97;;;1.30;;
16667;SDS011;8447;52.630;4.734;2022-08-04T06:09:33;4.40;;;1.63;;
16667;SDS011;8447;52.630;4.734;2022-08-04T06:11:59;3.83;;;1.37;;
16667;SDS011;8447;52.630;4.734;2022-08-04T06:14:27;4.93;;;1.47;;
16667;SDS011;8447;52.630;4.734;2022-08-04T06:16:58;4.93;;;2.10;;
16667;SDS011;8447;52.630;4.734;2022-08-04T06:19:25;3.80;;;1.43;;
16667;SDS011;8447;52.630;4.734;2022-08-04T06:21:53;3.27;;;1.53;;
16667;SDS011;8447;52.630;4.734;2022-08-04T06:24:22;3.50;;;2.03;;
16667;SDS011;8447;52.630;4.734;2022-08-04T06:26:49;3.90;;;1.33;;
16667;SDS011;8447;52.630;4.734;2022-08-04T06:29:16;3.20;;;1.47;;
16667;SDS011;8447;52.630;4.734;2022-08-04T06:31:48;4.70;;;1.40;;
16667;SDS011;8447;52.630;4.734;2022-08-04T06:34:24;4.67;;;1.50;;
16667;SDS011;8447;52.630;4.734;2022-08-04T06:36:51;3.73;;;1.67;;
16667;SDS011;8447;52.630;4.734;2022-08-04T06:39:18;4.57;;;1.43;;
16667;SDS011;8447;52.630;4.734;2022-08-04T06:41:46;5.87;;;1.67;;
16667;SDS011;8447;52.630;4.734;2022-08-04T06:44:14;5.50;;;1.60;;
16667;SDS011;8447;52.630;4.734;2022-08-04T06:46:40;8.43;;;1.73;;
16667;SDS011;8447;52.630;4.734;2022-08-04T06:49:07;4.77;;;1.53;;
16667;SDS011;8447;52.630;4.734;2022-08-04T06:51:36;4.87;;;1.30;;
16667;SDS011;8447;52.630;4.734;2022-08-04T06:54:03;3.23;;;1.23;;
16667;SDS011;8447;52.630;4.734;2022-08-04T06:56:30;5.13;;;1.80;;
16667;SDS011;8447;52.630;4.734;2022-08-04T06:58:58;5.83;;;1.60;;
16667;SDS011;8447;52.630;4.734;2022-08-04T07:01:25;5.07;;;1.77;;
16667;SDS011;8447;52.630;4.734;2022-08-04T07:03:52;3.37;;;1.47;;
16667;SDS011;8447;52.630;4.734;2022-08-04T07:06:20;3.13;;;1.33;;
16667;SDS011;8447;52.630;4.734;2022-08-04T07:08:47;3.30;;;1.10;;
16667;SDS011;8447;52.630;4.734;2022-08-04T07:11:14;2.33;;;1.07;;
16667;SDS011;8447;52.630;4.734;2022-08-04T07:13:40;7.13;;;1.13;;
16667;SDS011;8447;52.630;4.734;2022-08-04T07:16:07;4.93;;;1.20;;
16667;SDS011;8447;52.630;4.734;2022-08-04T07:18:35;2.77;;;0.90;;
16667;SDS011;8447;52.630;4.734;2022-08-04T07:21:01;7.63;;;1.57;;
16667;SDS011;8447;52.630;4.734;2022-08-04T07:23:27;3.63;;;0.97;;
16667;SDS011;8447;52.630;4.734;2022-08-04T07:25:56;3.23;;;1.07;;
16667;SDS011;8447;52.630;4.734;2022-08-04T07:28:23;5.97;;;1.50;;
16667;SDS011;8447;52.630;4.734;2022-08-04T07:30:50;6.43;;;1.00;;
16667;SDS011;8447;52.630;4.734;2022-08-04T07:33:17;4.07;;;0.90;;
16667;SDS011;8447;52.630;4.734;2022-08-04T07:35:44;2.27;;;1.30;;
16667;SDS011;8447;52.630;4.734;2022-08-04T07:38:11;2.30;;;0.80;;
16667;SDS011;8447;52.630;4.734;2022-08-04T07:40:37;4.33;;;1.20;;
16667;SDS011;8447;52.630;4.734;2022-08-04T07:43:05;4.10;;;0.80;;
16667;SDS011;8447;52.630;4.734;2022-08-04T07:45:31;5.03;;;1.20;;
16667;SDS011;8447;52.630;4.734;2022-08-04T07:47:58;3.67;;;1.20;;
16667;SDS011;8447;52.630;4.734;2022-08-04T07:50:25;3.40;;;1.00;;
16667;SDS011;8447;52.630;4.734;2022-08-04T07:52:52;2.27;;;0.83;;
16667;SDS011;8447;52.630;4.734;2022-08-04T07:55:19;5.37;;;1.47;;
16667;SDS011;8447;52.630;4.734;2022-08-04T07:57:47;4.13;;;1.00;;
16667;SDS011;8447;52.630;4.734;2022-08-04T08:00:14;3.85;;;0.82;;
16667;SDS011;8447;52.630;4.734;2022-08-04T08:02:42;4.93;;;1.20;;
16667;SDS011;8447;52.630;4.734;2022-08-04T08:05:09;4.50;;;1.10;;
16667;SDS011;8447;52.630;4.734;2022-08-04T08:07:35;3.88;;;1.13;;
16667;SDS011;8447;52.630;4.734;2022-08-04T08:10:02;2.40;;;0.95;;
16667;SDS011;8447;52.630;4.734;2022-08-04T08:12:28;4.13;;;0.93;;
16667;SDS011;8447;52.630;4.734;2022-08-04T08:14:56;2.17;;;0.93;;
16667;SDS011;8447;52.630;4.734;2022-08-04T08:17:25;2.40;;;0.90;;
16667;SDS011;8447;52.630;4.734;2022-08-04T08:19:51;2.15;;;1.02;;
16667;SDS011;8447;52.630;4.734;2022-08-04T08:22:17;2.95;;;1.00;;
16667;SDS011;8447;52.630;4.734;2022-08-04T08:24:44;4.32;;;1.13;;
16667;SDS011;8447;52.630;4.734;2022-08-04T08:27:10;3.95;;;1.48;;
16667;SDS011;8447;52.630;4.734;2022-08-04T08:29:36;2.42;;;1.00;;
16667;SDS011;8447;52.630;4.734;2022-08-04T08:32:04;3.20;;;1.00;;
16667;SDS011;8447;52.630;4.734;2022-08-04T08:34:34;3.40;;;1.05;;
16667;SDS011;8447;52.630;4.734;2022-08-04T08:37:02;2.13;;;0.88;;
16667;SDS011;8447;52.630;4.734;2022-08-04T08:39:31;4.20;;;1.00;;
16667;SDS011;8447;52.630;4.734;2022-08-04T08:42:06;3.40;;;0.60;;
16667;SDS011;8447;52.630;4.734;2022-08-04T08:44:48;3.38;;;1.23;;
16667;SDS011;8447;52.630;4.734;2022-08-04T08:47:26;4.55;;;0.90;;
16667;SDS011;8447;52.630;4.734;2022-08-04T08:50:04;5.50;;;1.20;;
16667;SDS011;8447;52.630;4.734;2022-08-04T08:55:24;3.05;;;1.10;;
16667;SDS011;8447;52.630;4.734;2022-08-04T09:00:40;1.92;;;1.00;;
16667;SDS011;8447;52.630;4.734;2022-08-04T09:03:16;4.53;;;1.10;;
16667;SDS011;8447;52.630;4.734;2022-08-04T09:05:58;3.65;;;0.93;;
16667;SDS011;8447;52.630;4.734;2022-08-04T09:08:29;1.98;;;0.90;;
16667;SDS011;8447;52.630;4.734;2022-08-04T09:11:04;2.00;;;0.80;;
16667;SDS011;8447;52.630;4.734;2022-08-04T09:13:32;2.20;;;0.80;;
16667;SDS011;8447;52.630;4.734;2022-08-04T09:16:01;1.85;;;0.90;;
16667;SDS011;8447;52.630;4.734;2022-08-04T09:18:33;3.47;;;1.30;;
16667;SDS011;8447;52.630;4.734;2022-08-04T09:21:03;3.05;;;1.23;;
16667;SDS011;8447;52.630;4.734;2022-08-04T09:23:33;2.45;;;0.80;;
16667;SDS011;8447;52.630;4.734;2022-08-04T09:26:03;4.18;;;1.00;;
16667;SDS011;8447;52.630;4.734;2022-08-04T09:28:34;1.77;;;1.05;;
16667;SDS011;8447;52.630;4.734;2022-08-04T09:31:05;2.53;;;0.70;;
16667;SDS011;8447;52.630;4.734;2022-08-04T09:33:34;2.25;;;0.80;;
16667;SDS011;8447;52.630;4.734;2022-08-04T09:36:06;3.28;;;1.10;;
16667;SDS011;8447;52.630;4.734;2022-08-04T09:38:34;4.00;;;0.85;;
16667;SDS011;8447;52.630;4.734;2022-08-04T09:41:08;2.20;;;1.00;;
16667;SDS011;8447;52.630;4.734;2022-08-04T09:43:42;2.67;;;1.02;;
16667;SDS011;8447;52.630;4.734;2022-08-04T09:46:13;5.57;;;0.98;;
16667;SDS011;8447;52.630;4.734;2022-08-04T09:48:41;3.78;;;0.98;;
16667;SDS011;8447;52.630;4.734;2022-08-04T09:51:13;4.18;;;0.88;;
16667;SDS011;8447;52.630;4.734;2022-08-04T09:53:45;3.03;;;0.90;;
16667;SDS011;8447;52.630;4.734;2022-08-04T09:56:17;5.07;;;1.30;;
16667;SDS011;8447;52.630;4.734;2022-08-04T09:58:49;2.28;;;1.10;;
16667;SDS011;8447;52.630;4.734;2022-08-04T10:01:18;2.78;;;0.88;;
16667;SDS011;8447;52.630;4.734;2022-08-04T10:03:47;3.72;;;1.00;;
16667;SDS011;8447;52.630;4.734;2022-08-04T10:06:20;5.63;;;1.00;;
16667;SDS011;8447;52.630;4.734;2022-08-04T10:08:55;2.42;;;1.00;;
16667;SDS011;8447;52.630;4.734;2022-08-04T10:11:30;2.00;;;1.08;;
16667;SDS011;8447;52.630;4.734;2022-08-04T10:13:59;3.97;;;1.45;;
16667;SDS011;8447;52.630;4.734;2022-08-04T10:16:31;6.43;;;1.20;;
16667;SDS011;8447;52.630;4.734;2022-08-04T10:19:01;1.58;;;0.80;;
16667;SDS011;8447;52.630;4.734;2022-08-04T10:21:35;3.17;;;1.00;;
16667;SDS011;8447;52.630;4.734;2022-08-04T10:24:06;2.67;;;0.98;;
16667;SDS011;8447;52.630;4.734;2022-08-04T10:26:41;6.22;;;1.52;;
16667;SDS011;8447;52.630;4.734;2022-08-04T10:29:11;2.65;;;0.80;;
16667;SDS011;8447;52.630;4.734;2022-08-04T10:31:41;5.53;;;0.75;;
16667;SDS011;8447;52.630;4.734;2022-08-04T10:34:10;2.03;;;0.82;;
16667;SDS011;8447;52.630;4.734;2022-08-04T10:36:40;2.00;;;0.90;;
16667;SDS011;8447;52.630;4.734;2022-08-04T10:39:12;4.85;;;1.30;;
16667;SDS011;8447;52.630;4.734;2022-08-04T10:41:41;5.03;;;1.15;;
16667;SDS011;8447;52.630;4.734;2022-08-04T10:44:13;3.30;;;0.95;;
16667;SDS011;8447;52.630;4.734;2022-08-04T10:46:44;3.97;;;0.80;;
16667;SDS011;8447;52.630;4.734;2022-08-04T10:49:14;2.88;;;1.20;;
16667;SDS011;8447;52.630;4.734;2022-08-04T10:51:43;4.30;;;1.10;;
16667;SDS011;8447;52.630;4.734;2022-08-04T10:54:12;3.53;;;0.88;;
16667;SDS011;8447;52.630;4.734;2022-08-04T10:56:41;2.17;;;1.00;;
16667;SDS011;8447;52.630;4.734;2022-08-04T10:59:09;4.63;;;1.05;;
16667;SDS011;8447;52.630;4.734;2022-08-04T11:01:37;2.30;;;1.10;;
16667;SDS011;8447;52.630;4.734;2022-08-04T11:04:06;2.15;;;0.95;;
16667;SDS011;8447;52.630;4.734;2022-08-04T11:06:35;2.05;;;1.00;;
16667;SDS011;8447;52.630;4.734;2022-08-04T11:09:04;2.72;;;1.10;;
16667;SDS011;8447;52.630;4.734;2022-08-04T11:11:32;3.35;;;1.30;;
16667;SDS011;8447;52.630;4.734;2022-08-04T11:14:01;2.40;;;0.95;;
16667;SDS011;8447;52.630;4.734;2022-08-04T11:16:28;5.03;;;1.15;;
16667;SDS011;8447;52.630;4.734;2022-08-04T11:19:00;3.97;;;0.88;;
16667;SDS011;8447;52.630;4.734;2022-08-04T11:21:31;4.22;;;0.80;;
16667;SDS011;8447;52.630;4.734;2022-08-04T11:24:00;2.35;;;1.00;;
16667;SDS011;8447;52.630;4.734;2022-08-04T11:26:31;1.85;;;0.82;;
16667;SDS011;8447;52.630;4.734;2022-08-04T11:29:03;2.53;;;1.00;;
16667;SDS011;8447;52.630;4.734;2022-08-04T11:31:31;2.60;;;1.10;;
16667;SDS011;8447;52.630;4.734;2022-08-04T11:34:00;2.65;;;1.10;;
16667;SDS011;8447;52.630;4.734;2022-08-04T11:36:29;3.63;;;1.13;;
16667;SDS011;8447;52.630;4.734;2022-08-04T11:39:00;2.92;;;1.10;;
16667;SDS011;8447;52.630;4.734;2022-08-04T11:41:34;2.28;;;0.90;;
16667;SDS011;8447;52.630;4.734;2022-08-04T11:44:01;3.92;;;1.17;;
16667;SDS011;8447;52.630;4.734;2022-08-04T11:46:31;2.58;;;0.88;;
16667;SDS011;8447;52.630;4.734;2022-08-04T11:49:02;1.75;;;0.90;;
16667;SDS011;8447;52.630;4.734;2022-08-04T11:51:30;2.15;;;0.52;;
16667;SDS011;8447;52.630;4.734;2022-08-04T11:53:58;1.58;;;0.80;;
16667;SDS011;8447;52.630;4.734;2022-08-04T11:56:25;5.57;;;0.80;;
16667;SDS011;8447;52.630;4.734;2022-08-04T11:58:53;3.25;;;0.77;;
16667;SDS011;8447;52.630;4.734;2022-08-04T12:01:23;3.88;;;0.88;;
16667;SDS011;8447;52.630;4.734;2022-08-04T12:03:54;1.80;;;0.80;;
16667;SDS011;8447;52.630;4.734;2022-08-04T12:06:28;3.00;;;0.90;;
16667;SDS011;8447;52.630;4.734;2022-08-04T12:09:03;2.10;;;0.90;;
16667;SDS011;8447;52.630;4.734;2022-08-04T12:11:44;5.25;;;1.20;;
16667;SDS011;8447;52.630;4.734;2022-08-04T12:14:18;2.83;;;0.90;;
16667;SDS011;8447;52.630;4.734;2022-08-04T12:16:47;1.38;;;0.82;;
16667;SDS011;8447;52.630;4.734;2022-08-04T12:19:22;2.88;;;0.90;;
16667;SDS011;8447;52.630;4.734;2022-08-04T12:21:49;2.65;;;0.70;;
16667;SDS011;8447;52.630;4.734;2022-08-04T12:24:17;2.65;;;1.10;;
16667;SDS011;8447;52.630;4.734;2022-08-04T12:26:48;2.40;;;0.80;;
16667;SDS011;8447;52.630;4.734;2022-08-04T12:29:16;3.05;;;0.80;;
16667;SDS011;8447;52.630;4.734;2022-08-04T12:31:44;2.45;;;0.75;;
16667;SDS011;8447;52.630;4.734;2022-08-04T12:34:12;4.40;;;1.08;;
16667;SDS011;8447;52.630;4.734;2022-08-04T12:36:42;3.72;;;0.73;;
16667;SDS011;8447;52.630;4.734;2022-08-04T12:39:11;4.18;;;0.80;;
16667;SDS011;8447;52.630;4.734;2022-08-04T12:41:42;1.90;;;0.90;;
16667;SDS011;8447;52.630;4.734;2022-08-04T12:44:11;3.30;;;0.85;;
16667;SDS011;8447;52.630;4.734;2022-08-04T12:46:39;2.53;;;0.80;;
16667;SDS011;8447;52.630;4.734;2022-08-04T12:49:10;5.25;;;1.05;;
16667;SDS011;8447;52.630;4.734;2022-08-04T12:51:38;2.53;;;0.70;;
16667;SDS011;8447;52.630;4.734;2022-08-04T12:54:05;2.30;;;0.90;;
16667;SDS011;8447;52.630;4.734;2022-08-04T12:56:32;3.15;;;1.00;;
16667;SDS011;8447;52.630;4.734;2022-08-04T12:58:59;3.72;;;1.20;;
16667;SDS011;8447;52.630;4.734;2022-08-04T13:01:26;3.35;;;1.20;;
16667;SDS011;8447;52.630;4.734;2022-08-04T13:03:55;3.95;;;1.30;;
16667;SDS011;8447;52.630;4.734;2022-08-04T13:06:23;7.35;;;1.30;;
16667;SDS011;8447;52.630;4.734;2022-08-04T13:08:49;2.90;;;1.10;;
16667;SDS011;8447;52.630;4.734;2022-08-04T13:11:16;3.25;;;1.45;;
16667;SDS011;8447;52.630;4.734;2022-08-04T13:13:42;1.67;;;0.70;;
16667;SDS011;8447;52.630;4.734;2022-08-04T13:16:09;6.10;;;1.77;;
16667;SDS011;8447;52.630;4.734;2022-08-04T13:18:37;4.05;;;0.90;;
16667;SDS011;8447;52.630;4.734;2022-08-04T13:21:10;2.92;;;0.90;;
16667;SDS011;8447;52.630;4.734;2022-08-04T13:23:38;1.55;;;1.02;;
16667;SDS011;8447;52.630;4.734;2022-08-04T13:26:04;8.68;;;1.15;;
16667;SDS011;8447;52.630;4.734;2022-08-04T13:28:31;2.67;;;0.90;;
16667;SDS011;8447;52.630;4.734;2022-08-04T13:30:59;3.73;;;1.20;;
16667;SDS011;8447;52.630;4.734;2022-08-04T13:33:27;2.80;;;0.97;;
16667;SDS011;8447;52.630;4.734;2022-08-04T13:35:54;3.57;;;0.87;;
16667;SDS011;8447;52.630;4.734;2022-08-04T13:38:22;2.17;;;1.10;;
16667;SDS011;8447;52.630;4.734;2022-08-04T13:40:49;2.73;;;1.10;;
16667;SDS011;8447;52.630;4.734;2022-08-04T13:43:21;3.17;;;0.83;;
16667;SDS011;8447;52.630;4.734;2022-08-04T13:45:48;4.03;;;0.83;;
16667;SDS011;8447;52.630;4.734;2022-08-04T13:48:15;1.07;;;0.80;;
16667;SDS011;8447;52.630;4.734;2022-08-04T13:50:43;2.63;;;0.90;;
16667;SDS011;8447;52.630;4.734;2022-08-04T13:53:10;4.67;;;1.07;;
16667;SDS011;8447;52.630;4.734;2022-08-04T13:55:38;1.93;;;0.70;;
16667;SDS011;8447;52.630;4.734;2022-08-04T13:58:06;2.03;;;0.80;;
16667;SDS011;8447;52.630;4.734;2022-08-04T14:00:42;3.13;;;0.97;;
16667;SDS011;8447;52.630;4.734;2022-08-04T14:03:09;6.00;;;1.10;;
16667;SDS011;8447;52.630;4.734;2022-08-04T14:05:38;3.57;;;1.27;;
16667;SDS011;8447;52.630;4.734;2022-08-04T14:08:10;2.50;;;0.83;;
16667;SDS011;8447;52.630;4.734;2022-08-04T14:10:39;2.60;;;1.00;;
16667;SDS011;8447;52.630;4.734;2022-08-04T14:13:06;2.27;;;0.97;;
16667;SDS011;8447;52.630;4.734;2022-08-04T14:15:33;4.70;;;0.80;;
16667;SDS011;8447;52.630;4.734;2022-08-04T14:18:14;3.03;;;1.00;;
16667;SDS011;8447;52.630;4.734;2022-08-04T14:20:46;1.63;;;0.80;;
16667;SDS011;8447;52.630;4.734;2022-08-04T14:23:22;3.67;;;1.00;;
16667;SDS011;8447;52.630;4.734;2022-08-04T14:25:50;1.83;;;0.90;;
16667;SDS011;8447;52.630;4.734;2022-08-04T14:28:25;5.07;;;1.10;;
16667;SDS011;8447;52.630;4.734;2022-08-04T14:30:52;2.07;;;0.67;;
16667;SDS011;8447;52.630;4.734;2022-08-04T14:33:35;3.43;;;0.93;;
16667;SDS011;8447;52.630;4.734;2022-08-04T14:36:02;4.17;;;1.00;;
16667;SDS011;8447;52.630;4.734;2022-08-04T14:38:39;1.97;;;0.70;;
16667;SDS011;8447;52.630;4.734;2022-08-04T14:41:08;2.43;;;1.10;;
16667;SDS011;8447;52.630;4.734;2022-08-04T14:43:39;6.50;;;1.03;;
16667;SDS011;8447;52.630;4.734;2022-08-04T14:46:06;4.93;;;0.93;;
16667;SDS011;8447;52.630;4.734;2022-08-04T14:48:33;2.70;;;1.13;;
16667;SDS011;8447;52.630;4.734;2022-08-04T14:50:59;3.13;;;0.80;;
16667;SDS011;8447;52.630;4.734;2022-08-04T14:53:25;6.80;;;0.90;;
16667;SDS011;8447;52.630;4.734;2022-08-04T14:55:54;2.73;;;0.70;;
16667;SDS011;8447;52.630;4.734;2022-08-04T14:58:22;3.93;;;0.93;;
16667;SDS011;8447;52.630;4.734;2022-08-04T15:00:49;5.03;;;1.20;;
16667;SDS011;8447;52.630;4.734;2022-08-04T15:03:17;3.60;;;0.90;;
16667;SDS011;8447;52.630;4.734;2022-08-04T15:05:44;1.90;;;0.70;;
16667;SDS011;8447;52.630;4.734;2022-08-04T15:08:11;3.13;;;1.03;;
16667;SDS011;8447;52.630;4.734;2022-08-04T15:10:38;2.97;;;0.70;;
16667;SDS011;8447;52.630;4.734;2022-08-04T15:13:05;4.90;;;1.03;;
16667;SDS011;8447;52.630;4.734;2022-08-04T15:15:33;1.00;;;0.90;;
16667;SDS011;8447;52.630;4.734;2022-08-04T15:17:59;2.13;;;1.17;;
16667;SDS011;8447;52.630;4.734;2022-08-04T15:20:27;3.70;;;0.90;;
16667;SDS011;8447;52.630;4.734;2022-08-04T15:22:54;2.37;;;1.10;;
16667;SDS011;8447;52.630;4.734;2022-08-04T15:25:21;2.07;;;0.97;;
16667;SDS011;8447;52.630;4.734;2022-08-04T15:27:47;2.27;;;0.90;;
16667;SDS011;8447;52.630;4.734;2022-08-04T15:30:15;4.93;;;1.10;;
16667;SDS011;8447;52.630;4.734;2022-08-04T15:32:54;5.40;;;1.47;;
16667;SDS011;8447;52.630;4.734;2022-08-04T15:35:23;9.03;;;1.10;;
16667;SDS011;8447;52.630;4.734;2022-08-04T15:37:51;4.03;;;1.03;;
16667;SDS011;8447;52.630;4.734;2022-08-04T15:40:20;2.10;;;1.63;;
16667;SDS011;8447;52.630;4.734;2022-08-04T15:42:48;4.40;;;1.40;;
16667;SDS011;8447;52.630;4.734;2022-08-04T15:45:23;1.93;;;1.00;;
16667;SDS011;8447;52.630;4.734;2022-08-04T15:50:43;2.10;;;1.00;;
16667;SDS011;8447;52.630;4.734;2022-08-04T15:53:25;3.60;;;1.20;;
16667;SDS011;8447;52.630;4.734;2022-08-04T15:55:52;3.80;;;1.57;;
16667;SDS011;8447;52.630;4.734;2022-08-04T15:58:19;3.87;;;1.20;;
16667;SDS011;8447;52.630;4.734;2022-08-04T16:03:40;2.80;;;1.20;;
16667;SDS011;8447;52.630;4.734;2022-08-04T16:08:59;1.40;;;0.90;;
16667;SDS011;8447;52.630;4.734;2022-08-04T16:11:35;2.37;;;1.03;;